sensor_id;sensor_type;location;lat;lon;timestamp;P1;durP1;ratioP1;P2;durP2;ratioP2
30681;SDS011;17439;48.092;11.842;2023-09-07T00:02:05;3.60;;;2.40;;
30681;SDS011;17439;48.092;11.842;2023-09-07T00:04:32;2.65;;;1.90;;
30681;SDS011;17439;48.092;11.842;2023-09-07T00:06:59;3.28;;;1.90;;
30681;SDS011;17439;48.092;11.842;2023-09-07T00:09:26;3.72;;;2.60;;
30681;SDS011;17439;48.092;11.842;2023-09-07T00:11:53;5.38;;;2.47;;
30681;SDS011;17439;48.092;11.842;2023-09-07T00:14:20;3.85;;;2.30;;
30681;SDS011;17439;48.092;11.842;2023-09-07T00:16:47;5.15;;;2.17;;
30681;SDS011;17439;48.092;11.842;2023-09-07T00:19:14;3.00;;;2.42;;
30681;SDS011;17439;48.092;11.842;2023-09-07T00:21:40;5.10;;;2.88;;
30681;SDS011;17439;48.092;11.842;2023-09-07T00:24:07;5.13;;;2.53;;
30681;SDS011;17439;48.092;11.842;2023-09-07T00:26:34;6.18;;;2.28;;
30681;SDS011;17439;48.092;11.842;2023-09-07T00:29:00;7.68;;;2.10;;
30681;SDS011;17439;48.092;11.842;2023-09-07T00:31:27;4.20;;;2.75;;
30681;SDS011;17439;48.092;11.842;2023-09-07T00:33:54;4.03;;;2.30;;
30681;SDS011;17439;48.092;11.842;2023-09-07T00:36:21;1.50;;;1.35;;
30681;SDS011;17439;48.092;11.842;2023-09-07T00:38:48;3.35;;;1.85;;
30681;SDS011;17439;48.092;11.842;2023-09-07T00:41:14;4.55;;;2.10;;
30681;SDS011;17439;48.092;11.842;2023-09-07T00:43:41;3.38;;;2.03;;
30681;SDS011;17439;48.092;11.842;2023-09-07T00:46:08;4.47;;;1.60;;
30681;SDS011;17439;48.092;11.842;2023-09-07T00:48:36;5.55;;;2.00;;
30681;SDS011;17439;48.092;11.842;2023-09-07T00:51:03;3.13;;;2.03;;
30681;SDS011;17439;48.092;11.842;2023-09-07T00:53:30;2.80;;;1.80;;
30681;SDS011;17439;48.092;11.842;2023-09-07T00:55:58;2.78;;;2.20;;
30681;SDS011;17439;48.092;11.842;2023-09-07T00:58:25;9.57;;;2.00;;
30681;SDS011;17439;48.092;11.842;2023-09-07T01:00:52;7.22;;;2.25;;
30681;SDS011;17439;48.092;11.842;2023-09-07T01:03:20;4.13;;;1.95;;
30681;SDS011;17439;48.092;11.842;2023-09-07T01:05:51;4.75;;;2.20;;
30681;SDS011;17439;48.092;11.842;2023-09-07T01:11:17;2.72;;;2.15;;
30681;SDS011;17439;48.092;11.842;2023-09-07T01:13:45;3.08;;;2.38;;
30681;SDS011;17439;48.092;11.842;2023-09-07T01:16:12;6.47;;;2.30;;
30681;SDS011;17439;48.092;11.842;2023-09-07T01:21:08;5.20;;;2.30;;
30681;SDS011;17439;48.092;11.842;2023-09-07T01:23:36;2.42;;;1.83;;
30681;SDS011;17439;48.092;11.842;2023-09-07T01:26:05;4.50;;;1.92;;
30681;SDS011;17439;48.092;11.842;2023-09-07T01:28:34;6.15;;;2.00;;
30681;SDS011;17439;48.092;11.842;2023-09-07T01:33:29;2.78;;;1.80;;
30681;SDS011;17439;48.092;11.842;2023-09-07T01:35:55;2.63;;;1.80;;
30681;SDS011;17439;48.092;11.842;2023-09-07T01:38:22;4.03;;;1.73;;
30681;SDS011;17439;48.092;11.842;2023-09-07T01:40:49;2.78;;;2.30;;
30681;SDS011;17439;48.092;11.842;2023-09-07T01:43:16;3.17;;;1.95;;
30681;SDS011;17439;48.092;11.842;2023-09-07T01:45:43;4.28;;;1.73;;
30681;SDS011;17439;48.092;11.842;2023-09-07T01:48:10;4.65;;;1.92;;
30681;SDS011;17439;48.092;11.842;2023-09-07T01:50:38;3.03;;;2.13;;
30681;SDS011;17439;48.092;11.842;2023-09-07T01:53:05;3.90;;;2.40;;
30681;SDS011;17439;48.092;11.842;2023-09-07T01:55:32;5.43;;;2.35;;
30681;SDS011;17439;48.092;11.842;2023-09-07T01:57:59;2.47;;;1.77;;
30681;SDS011;17439;48.092;11.842;2023-09-07T02:00:26;2.20;;;1.60;;
30681;SDS011;17439;48.092;11.842;2023-09-07T02:02:53;4.63;;;2.17;;
30681;SDS011;17439;48.092;11.842;2023-09-07T02:05:19;3.60;;;2.33;;
30681;SDS011;17439;48.092;11.842;2023-09-07T02:07:46;3.05;;;1.98;;
30681;SDS011;17439;48.092;11.842;2023-09-07T02:10:13;5.30;;;1.85;;
30681;SDS011;17439;48.092;11.842;2023-09-07T02:12:39;3.75;;;2.33;;
30681;SDS011;17439;48.092;11.842;2023-09-07T02:15:06;2.38;;;2.00;;
30681;SDS011;17439;48.092;11.842;2023-09-07T02:17:33;3.15;;;1.98;;
30681;SDS011;17439;48.092;11.842;2023-09-07T02:20:00;4.20;;;2.40;;
30681;SDS011;17439;48.092;11.842;2023-09-07T02:22:27;3.67;;;1.87;;
30681;SDS011;17439;48.092;11.842;2023-09-07T02:24:54;2.25;;;1.80;;
30681;SDS011;17439;48.092;11.842;2023-09-07T02:27:21;6.20;;;2.20;;
30681;SDS011;17439;48.092;11.842;2023-09-07T02:29:47;3.00;;;2.10;;
30681;SDS011;17439;48.092;11.842;2023-09-07T02:32:14;3.15;;;1.83;;
30681;SDS011;17439;48.092;11.842;2023-09-07T02:34:41;5.93;;;1.88;;
30681;SDS011;17439;48.092;11.842;2023-09-07T02:37:08;6.57;;;2.53;;
30681;SDS011;17439;48.092;11.842;2023-09-07T02:39:35;3.25;;;1.95;;
30681;SDS011;17439;48.092;11.842;2023-09-07T02:42:01;3.78;;;1.88;;
30681;SDS011;17439;48.092;11.842;2023-09-07T02:44:29;4.47;;;2.10;;
30681;SDS011;17439;48.092;11.842;2023-09-07T02:46:55;3.30;;;2.70;;
30681;SDS011;17439;48.092;11.842;2023-09-07T02:49:22;4.60;;;2.65;;
30681;SDS011;17439;48.092;11.842;2023-09-07T02:51:49;3.65;;;2.58;;
30681;SDS011;17439;48.092;11.842;2023-09-07T02:54:16;2.90;;;1.90;;
30681;SDS011;17439;48.092;11.842;2023-09-07T02:56:43;3.08;;;2.42;;
30681;SDS011;17439;48.092;11.842;2023-09-07T02:59:10;2.65;;;2.00;;
30681;SDS011;17439;48.092;11.842;2023-09-07T03:01:38;2.70;;;2.20;;
30681;SDS011;17439;48.092;11.842;2023-09-07T03:04:05;2.97;;;2.10;;
30681;SDS011;17439;48.092;11.842;2023-09-07T03:06:32;4.85;;;2.53;;
30681;SDS011;17439;48.092;11.842;2023-09-07T03:08:59;2.90;;;2.03;;
30681;SDS011;17439;48.092;11.842;2023-09-07T03:11:26;3.88;;;2.38;;
30681;SDS011;17439;48.092;11.842;2023-09-07T03:13:53;5.72;;;2.10;;
30681;SDS011;17439;48.092;11.842;2023-09-07T03:16:20;4.60;;;2.50;;
30681;SDS011;17439;48.092;11.842;2023-09-07T03:18:48;4.20;;;2.55;;
30681;SDS011;17439;48.092;11.842;2023-09-07T03:21:15;3.83;;;2.53;;
30681;SDS011;17439;48.092;11.842;2023-09-07T03:23:42;6.38;;;2.20;;
30681;SDS011;17439;48.092;11.842;2023-09-07T03:26:08;4.07;;;2.30;;
30681;SDS011;17439;48.092;11.842;2023-09-07T03:28:37;3.97;;;2.35;;
30681;SDS011;17439;48.092;11.842;2023-09-07T03:31:04;3.88;;;2.75;;
30681;SDS011;17439;48.092;11.842;2023-09-07T03:33:31;3.38;;;2.30;;
30681;SDS011;17439;48.092;11.842;2023-09-07T03:35:58;4.80;;;2.67;;
30681;SDS011;17439;48.092;11.842;2023-09-07T03:38:25;3.95;;;2.50;;
30681;SDS011;17439;48.092;11.842;2023-09-07T03:40:52;3.83;;;2.72;;
30681;SDS011;17439;48.092;11.842;2023-09-07T03:43:19;7.95;;;2.92;;
30681;SDS011;17439;48.092;11.842;2023-09-07T03:45:46;4.93;;;2.97;;
30681;SDS011;17439;48.092;11.842;2023-09-07T03:48:13;3.25;;;2.30;;
30681;SDS011;17439;48.092;11.842;2023-09-07T03:50:41;3.08;;;2.35;;
30681;SDS011;17439;48.092;11.842;2023-09-07T03:53:08;4.90;;;2.60;;
30681;SDS011;17439;48.092;11.842;2023-09-07T03:55:41;4.45;;;3.53;;
30681;SDS011;17439;48.092;11.842;2023-09-07T03:58:10;5.03;;;2.80;;
30681;SDS011;17439;48.092;11.842;2023-09-07T04:00:39;3.75;;;2.45;;
30681;SDS011;17439;48.092;11.842;2023-09-07T04:03:07;4.50;;;2.97;;
30681;SDS011;17439;48.092;11.842;2023-09-07T04:05:36;3.28;;;2.53;;
30681;SDS011;17439;48.092;11.842;2023-09-07T04:08:03;4.57;;;2.80;;
30681;SDS011;17439;48.092;11.842;2023-09-07T04:10:30;4.13;;;2.75;;
30681;SDS011;17439;48.092;11.842;2023-09-07T04:12:57;8.45;;;3.35;;
30681;SDS011;17439;48.092;11.842;2023-09-07T04:15:24;5.47;;;3.42;;
30681;SDS011;17439;48.092;11.842;2023-09-07T04:17:51;6.95;;;3.20;;
30681;SDS011;17439;48.092;11.842;2023-09-07T04:20:18;5.43;;;2.97;;
30681;SDS011;17439;48.092;11.842;2023-09-07T04:22:44;5.75;;;2.92;;
30681;SDS011;17439;48.092;11.842;2023-09-07T04:25:11;4.68;;;2.83;;
30681;SDS011;17439;48.092;11.842;2023-09-07T04:27:38;3.30;;;2.67;;
30681;SDS011;17439;48.092;11.842;2023-09-07T04:32:35;4.13;;;2.60;;
30681;SDS011;17439;48.092;11.842;2023-09-07T04:35:02;2.92;;;2.40;;
30681;SDS011;17439;48.092;11.842;2023-09-07T04:39:57;3.65;;;2.33;;
30681;SDS011;17439;48.092;11.842;2023-09-07T04:42:24;6.32;;;2.78;;
30681;SDS011;17439;48.092;11.842;2023-09-07T04:44:51;8.85;;;3.05;;
30681;SDS011;17439;48.092;11.842;2023-09-07T04:47:17;5.57;;;3.50;;
30681;SDS011;17439;48.092;11.842;2023-09-07T04:49:50;5.32;;;3.30;;
30681;SDS011;17439;48.092;11.842;2023-09-07T04:52:19;4.93;;;3.00;;
30681;SDS011;17439;48.092;11.842;2023-09-07T04:54:46;5.53;;;3.00;;
30681;SDS011;17439;48.092;11.842;2023-09-07T04:57:15;4.13;;;3.08;;
30681;SDS011;17439;48.092;11.842;2023-09-07T04:59:43;11.48;;;4.00;;
30681;SDS011;17439;48.092;11.842;2023-09-07T05:02:09;6.32;;;3.00;;
30681;SDS011;17439;48.092;11.842;2023-09-07T05:04:36;7.13;;;2.85;;
30681;SDS011;17439;48.092;11.842;2023-09-07T05:07:03;5.05;;;2.78;;
30681;SDS011;17439;48.092;11.842;2023-09-07T05:09:30;6.40;;;2.75;;
30681;SDS011;17439;48.092;11.842;2023-09-07T05:11:57;4.70;;;2.70;;
30681;SDS011;17439;48.092;11.842;2023-09-07T05:14:24;3.85;;;3.10;;
30681;SDS011;17439;48.092;11.842;2023-09-07T05:16:51;8.00;;;3.22;;
30681;SDS011;17439;48.092;11.842;2023-09-07T05:19:18;5.65;;;3.25;;
30681;SDS011;17439;48.092;11.842;2023-09-07T05:21:45;5.72;;;3.22;;
30681;SDS011;17439;48.092;11.842;2023-09-07T05:24:13;4.72;;;2.80;;
30681;SDS011;17439;48.092;11.842;2023-09-07T05:26:40;5.05;;;3.03;;
30681;SDS011;17439;48.092;11.842;2023-09-07T05:29:09;5.78;;;3.55;;
30681;SDS011;17439;48.092;11.842;2023-09-07T05:31:36;3.80;;;2.43;;
30681;SDS011;17439;48.092;11.842;2023-09-07T05:34:03;4.05;;;3.03;;
30681;SDS011;17439;48.092;11.842;2023-09-07T05:36:29;4.70;;;3.22;;
30681;SDS011;17439;48.092;11.842;2023-09-07T05:38:57;4.55;;;2.80;;
30681;SDS011;17439;48.092;11.842;2023-09-07T05:41:24;4.88;;;3.45;;
30681;SDS011;17439;48.092;11.842;2023-09-07T05:43:52;4.70;;;2.90;;
30681;SDS011;17439;48.092;11.842;2023-09-07T05:46:19;6.82;;;3.22;;
30681;SDS011;17439;48.092;11.842;2023-09-07T05:48:45;3.45;;;2.58;;
30681;SDS011;17439;48.092;11.842;2023-09-07T05:51:13;6.80;;;3.03;;
30681;SDS011;17439;48.092;11.842;2023-09-07T05:53:40;5.13;;;3.10;;
30681;SDS011;17439;48.092;11.842;2023-09-07T05:56:07;4.07;;;2.92;;
30681;SDS011;17439;48.092;11.842;2023-09-07T05:58:34;4.78;;;2.55;;
30681;SDS011;17439;48.092;11.842;2023-09-07T06:01:01;7.63;;;3.00;;
30681;SDS011;17439;48.092;11.842;2023-09-07T06:03:28;4.55;;;3.08;;
30681;SDS011;17439;48.092;11.842;2023-09-07T06:05:56;3.88;;;2.85;;
30681;SDS011;17439;48.092;11.842;2023-09-07T06:08:23;4.45;;;2.72;;
30681;SDS011;17439;48.092;11.842;2023-09-07T06:10:49;7.93;;;2.92;;
30681;SDS011;17439;48.092;11.842;2023-09-07T06:13:16;8.57;;;2.88;;
30681;SDS011;17439;48.092;11.842;2023-09-07T06:15:43;9.25;;;3.40;;
30681;SDS011;17439;48.092;11.842;2023-09-07T06:18:10;5.10;;;3.10;;
30681;SDS011;17439;48.092;11.842;2023-09-07T06:20:37;7.20;;;3.58;;
30681;SDS011;17439;48.092;11.842;2023-09-07T06:23:04;7.53;;;4.43;;
30681;SDS011;17439;48.092;11.842;2023-09-07T06:25:31;7.53;;;3.63;;
30681;SDS011;17439;48.092;11.842;2023-09-07T06:27:59;6.93;;;2.65;;
30681;SDS011;17439;48.092;11.842;2023-09-07T06:30:26;6.18;;;3.40;;
30681;SDS011;17439;48.092;11.842;2023-09-07T06:32:53;6.72;;;3.67;;
30681;SDS011;17439;48.092;11.842;2023-09-07T06:35:20;5.70;;;3.53;;
30681;SDS011;17439;48.092;11.842;2023-09-07T06:37:47;4.83;;;3.80;;
30681;SDS011;17439;48.092;11.842;2023-09-07T06:40:18;5.85;;;3.97;;
30681;SDS011;17439;48.092;11.842;2023-09-07T06:42:49;7.30;;;4.90;;
30681;SDS011;17439;48.092;11.842;2023-09-07T06:45:19;8.20;;;4.95;;
30681;SDS011;17439;48.092;11.842;2023-09-07T06:47:48;11.23;;;4.63;;
30681;SDS011;17439;48.092;11.842;2023-09-07T06:50:16;6.95;;;4.43;;
30681;SDS011;17439;48.092;11.842;2023-09-07T06:52:43;7.13;;;4.75;;
30681;SDS011;17439;48.092;11.842;2023-09-07T06:55:10;7.75;;;5.30;;
30681;SDS011;17439;48.092;11.842;2023-09-07T06:57:36;7.82;;;4.78;;
30681;SDS011;17439;48.092;11.842;2023-09-07T07:00:04;6.68;;;4.80;;
30681;SDS011;17439;48.092;11.842;2023-09-07T07:02:32;8.02;;;5.05;;
30681;SDS011;17439;48.092;11.842;2023-09-07T07:04:59;7.13;;;4.63;;
30681;SDS011;17439;48.092;11.842;2023-09-07T07:07:28;7.47;;;5.10;;
30681;SDS011;17439;48.092;11.842;2023-09-07T07:09:56;6.45;;;4.38;;
30681;SDS011;17439;48.092;11.842;2023-09-07T07:12:23;7.97;;;5.18;;
30681;SDS011;17439;48.092;11.842;2023-09-07T07:14:49;7.75;;;4.75;;
30681;SDS011;17439;48.092;11.842;2023-09-07T07:17:16;8.50;;;4.90;;
30681;SDS011;17439;48.092;11.842;2023-09-07T07:19:43;7.20;;;5.05;;
30681;SDS011;17439;48.092;11.842;2023-09-07T07:22:10;9.02;;;4.60;;
30681;SDS011;17439;48.092;11.842;2023-09-07T07:24:37;10.00;;;5.28;;
30681;SDS011;17439;48.092;11.842;2023-09-07T07:27:03;8.10;;;4.95;;
30681;SDS011;17439;48.092;11.842;2023-09-07T07:29:33;8.30;;;4.80;;
30681;SDS011;17439;48.092;11.842;2023-09-07T07:32:01;6.85;;;5.10;;
30681;SDS011;17439;48.092;11.842;2023-09-07T07:34:29;7.55;;;4.22;;
30681;SDS011;17439;48.092;11.842;2023-09-07T07:36:57;8.05;;;4.40;;
30681;SDS011;17439;48.092;11.842;2023-09-07T07:39:23;6.45;;;4.60;;
30681;SDS011;17439;48.092;11.842;2023-09-07T07:41:50;9.57;;;5.00;;
30681;SDS011;17439;48.092;11.842;2023-09-07T07:44:17;6.15;;;4.63;;
30681;SDS011;17439;48.092;11.842;2023-09-07T07:49:13;10.23;;;4.90;;
30681;SDS011;17439;48.092;11.842;2023-09-07T07:51:40;11.25;;;5.43;;
30681;SDS011;17439;48.092;11.842;2023-09-07T07:54:08;7.80;;;5.18;;
30681;SDS011;17439;48.092;11.842;2023-09-07T07:56:34;6.60;;;4.30;;
30681;SDS011;17439;48.092;11.842;2023-09-07T07:59:02;7.72;;;4.35;;
30681;SDS011;17439;48.092;11.842;2023-09-07T08:01:29;10.77;;;4.57;;
30681;SDS011;17439;48.092;11.842;2023-09-07T08:03:57;6.75;;;4.07;;
30681;SDS011;17439;48.092;11.842;2023-09-07T08:06:29;8.55;;;4.95;;
30681;SDS011;17439;48.092;11.842;2023-09-07T08:08:56;7.57;;;4.70;;
30681;SDS011;17439;48.092;11.842;2023-09-07T08:11:22;7.00;;;5.07;;
30681;SDS011;17439;48.092;11.842;2023-09-07T08:13:51;7.20;;;5.38;;
30681;SDS011;17439;48.092;11.842;2023-09-07T08:16:18;5.57;;;4.35;;
30681;SDS011;17439;48.092;11.842;2023-09-07T08:18:45;8.40;;;4.43;;
30681;SDS011;17439;48.092;11.842;2023-09-07T08:21:14;5.65;;;4.03;;
30681;SDS011;17439;48.092;11.842;2023-09-07T08:23:41;5.70;;;4.70;;
30681;SDS011;17439;48.092;11.842;2023-09-07T08:26:08;5.80;;;4.35;;
30681;SDS011;17439;48.092;11.842;2023-09-07T08:28:37;8.75;;;4.97;;
30681;SDS011;17439;48.092;11.842;2023-09-07T08:31:03;8.05;;;4.18;;
30681;SDS011;17439;48.092;11.842;2023-09-07T08:33:31;5.32;;;4.20;;
30681;SDS011;17439;48.092;11.842;2023-09-07T08:35:58;9.15;;;5.38;;
30681;SDS011;17439;48.092;11.842;2023-09-07T08:38:25;6.85;;;4.45;;
30681;SDS011;17439;48.092;11.842;2023-09-07T08:40:53;6.15;;;4.43;;
30681;SDS011;17439;48.092;11.842;2023-09-07T08:43:20;8.35;;;3.90;;
30681;SDS011;17439;48.092;11.842;2023-09-07T08:45:52;9.68;;;5.40;;
30681;SDS011;17439;48.092;11.842;2023-09-07T08:48:26;6.15;;;4.18;;
30681;SDS011;17439;48.092;11.842;2023-09-07T08:50:55;5.30;;;3.97;;
30681;SDS011;17439;48.092;11.842;2023-09-07T08:53:23;7.53;;;4.97;;
30681;SDS011;17439;48.092;11.842;2023-09-07T08:58:17;6.53;;;4.53;;
30681;SDS011;17439;48.092;11.842;2023-09-07T09:00:44;12.27;;;5.15;;
30681;SDS011;17439;48.092;11.842;2023-09-07T09:03:11;7.15;;;4.82;;
30681;SDS011;17439;48.092;11.842;2023-09-07T09:05:39;6.18;;;4.45;;
30681;SDS011;17439;48.092;11.842;2023-09-07T09:08:06;5.22;;;3.50;;
30681;SDS011;17439;48.092;11.842;2023-09-07T09:10:40;6.78;;;4.07;;
30681;SDS011;17439;48.092;11.842;2023-09-07T09:13:06;6.18;;;4.20;;
30681;SDS011;17439;48.092;11.842;2023-09-07T09:15:33;7.18;;;4.63;;
30681;SDS011;17439;48.092;11.842;2023-09-07T09:18:08;8.27;;;4.45;;
30681;SDS011;17439;48.092;11.842;2023-09-07T09:20:37;4.82;;;4.13;;
30681;SDS011;17439;48.092;11.842;2023-09-07T09:23:04;4.75;;;3.58;;
30681;SDS011;17439;48.092;11.842;2023-09-07T09:25:31;6.97;;;3.63;;
30681;SDS011;17439;48.092;11.842;2023-09-07T09:27:58;5.07;;;3.38;;
30681;SDS011;17439;48.092;11.842;2023-09-07T09:30:25;5.45;;;4.32;;
30681;SDS011;17439;48.092;11.842;2023-09-07T09:32:51;6.75;;;4.05;;
30681;SDS011;17439;48.092;11.842;2023-09-07T09:35:18;8.90;;;4.43;;
30681;SDS011;17439;48.092;11.842;2023-09-07T09:37:46;8.23;;;4.40;;
30681;SDS011;17439;48.092;11.842;2023-09-07T09:40:15;7.72;;;4.05;;
30681;SDS011;17439;48.092;11.842;2023-09-07T09:42:42;6.13;;;4.13;;
30681;SDS011;17439;48.092;11.842;2023-09-07T09:45:10;6.38;;;4.20;;
30681;SDS011;17439;48.092;11.842;2023-09-07T09:47:39;6.47;;;4.47;;
30681;SDS011;17439;48.092;11.842;2023-09-07T09:50:08;6.53;;;4.28;;
30681;SDS011;17439;48.092;11.842;2023-09-07T09:52:36;6.18;;;4.22;;
30681;SDS011;17439;48.092;11.842;2023-09-07T09:55:04;5.93;;;3.80;;
30681;SDS011;17439;48.092;11.842;2023-09-07T09:57:32;7.53;;;3.85;;
30681;SDS011;17439;48.092;11.842;2023-09-07T09:59:59;4.63;;;3.90;;
30681;SDS011;17439;48.092;11.842;2023-09-07T10:02:26;5.15;;;4.18;;
30681;SDS011;17439;48.092;11.842;2023-09-07T10:04:53;8.90;;;4.30;;
30681;SDS011;17439;48.092;11.842;2023-09-07T10:07:20;7.63;;;4.95;;
30681;SDS011;17439;48.092;11.842;2023-09-07T10:10:08;10.70;;;4.78;;
30681;SDS011;17439;48.092;11.842;2023-09-07T10:12:40;7.63;;;5.00;;
30681;SDS011;17439;48.092;11.842;2023-09-07T10:15:20;8.68;;;5.03;;
30681;SDS011;17439;48.092;11.842;2023-09-07T10:17:55;5.72;;;3.63;;
30681;SDS011;17439;48.092;11.842;2023-09-07T10:20:49;5.35;;;3.67;;
30681;SDS011;17439;48.092;11.842;2023-09-07T10:23:38;7.50;;;3.95;;
30681;SDS011;17439;48.092;11.842;2023-09-07T10:26:10;10.10;;;4.72;;
30681;SDS011;17439;48.092;11.842;2023-09-07T10:28:38;6.25;;;4.18;;
30681;SDS011;17439;48.092;11.842;2023-09-07T10:31:06;7.07;;;4.45;;
30681;SDS011;17439;48.092;11.842;2023-09-07T10:33:39;7.47;;;4.30;;
30681;SDS011;17439;48.092;11.842;2023-09-07T10:36:06;5.45;;;3.90;;
30681;SDS011;17439;48.092;11.842;2023-09-07T10:38:33;6.68;;;4.40;;
30681;SDS011;17439;48.092;11.842;2023-09-07T10:41:01;5.35;;;4.30;;
30681;SDS011;17439;48.092;11.842;2023-09-07T10:43:30;4.80;;;3.55;;
30681;SDS011;17439;48.092;11.842;2023-09-07T10:45:59;6.85;;;4.40;;
30681;SDS011;17439;48.092;11.842;2023-09-07T10:48:30;13.57;;;4.28;;
30681;SDS011;17439;48.092;11.842;2023-09-07T10:50:57;6.78;;;4.07;;
30681;SDS011;17439;48.092;11.842;2023-09-07T10:53:25;7.03;;;3.50;;
30681;SDS011;17439;48.092;11.842;2023-09-07T10:55:59;4.28;;;3.53;;
30681;SDS011;17439;48.092;11.842;2023-09-07T10:58:30;5.70;;;4.05;;
30681;SDS011;17439;48.092;11.842;2023-09-07T11:01:01;7.13;;;3.83;;
30681;SDS011;17439;48.092;11.842;2023-09-07T11:03:28;10.57;;;3.88;;
30681;SDS011;17439;48.092;11.842;2023-09-07T11:05:56;6.97;;;4.00;;
30681;SDS011;17439;48.092;11.842;2023-09-07T11:08:24;5.63;;;3.85;;
30681;SDS011;17439;48.092;11.842;2023-09-07T11:10:51;7.93;;;3.92;;
30681;SDS011;17439;48.092;11.842;2023-09-07T11:13:18;4.88;;;3.67;;
30681;SDS011;17439;48.092;11.842;2023-09-07T11:15:45;4.97;;;3.65;;
30681;SDS011;17439;48.092;11.842;2023-09-07T11:18:12;7.30;;;3.72;;
30681;SDS011;17439;48.092;11.842;2023-09-07T11:20:39;5.60;;;4.05;;
30681;SDS011;17439;48.092;11.842;2023-09-07T11:23:05;8.18;;;4.00;;
30681;SDS011;17439;48.092;11.842;2023-09-07T11:25:36;7.82;;;4.07;;
30681;SDS011;17439;48.092;11.842;2023-09-07T11:28:04;6.75;;;4.45;;
30681;SDS011;17439;48.092;11.842;2023-09-07T11:30:32;6.22;;;3.85;;
30681;SDS011;17439;48.092;11.842;2023-09-07T11:33:04;7.03;;;4.10;;
30681;SDS011;17439;48.092;11.842;2023-09-07T11:35:33;6.93;;;3.92;;
30681;SDS011;17439;48.092;11.842;2023-09-07T11:40:27;5.72;;;3.40;;
30681;SDS011;17439;48.092;11.842;2023-09-07T11:42:54;7.70;;;3.80;;
30681;SDS011;17439;48.092;11.842;2023-09-07T11:45:21;4.70;;;3.47;;
30681;SDS011;17439;48.092;11.842;2023-09-07T11:47:48;7.18;;;3.78;;
30681;SDS011;17439;48.092;11.842;2023-09-07T11:50:16;6.00;;;3.72;;
30681;SDS011;17439;48.092;11.842;2023-09-07T11:52:44;4.55;;;4.10;;
30681;SDS011;17439;48.092;11.842;2023-09-07T11:57:40;5.80;;;3.72;;
30681;SDS011;17439;48.092;11.842;2023-09-07T12:00:07;6.60;;;4.85;;
30681;SDS011;17439;48.092;11.842;2023-09-07T12:02:39;7.20;;;4.22;;
30681;SDS011;17439;48.092;11.842;2023-09-07T12:05:07;7.05;;;4.28;;
30681;SDS011;17439;48.092;11.842;2023-09-07T12:07:34;6.90;;;3.55;;
30681;SDS011;17439;48.092;11.842;2023-09-07T12:10:05;7.47;;;4.20;;
30681;SDS011;17439;48.092;11.842;2023-09-07T12:12:32;4.68;;;3.45;;
30681;SDS011;17439;48.092;11.842;2023-09-07T12:14:58;4.10;;;3.22;;
30681;SDS011;17439;48.092;11.842;2023-09-07T12:17:25;4.40;;;3.63;;
30681;SDS011;17439;48.092;11.842;2023-09-07T12:19:52;6.83;;;3.57;;
30681;SDS011;17439;48.092;11.842;2023-09-07T12:22:19;4.20;;;3.05;;
30681;SDS011;17439;48.092;11.842;2023-09-07T12:24:46;5.07;;;3.17;;
30681;SDS011;17439;48.092;11.842;2023-09-07T12:27:18;3.20;;;2.90;;
30681;SDS011;17439;48.092;11.842;2023-09-07T12:29:47;5.50;;;3.28;;
30681;SDS011;17439;48.092;11.842;2023-09-07T12:32:14;6.25;;;4.15;;
30681;SDS011;17439;48.092;11.842;2023-09-07T12:34:41;5.38;;;3.00;;
30681;SDS011;17439;48.092;11.842;2023-09-07T12:37:08;6.72;;;3.33;;
30681;SDS011;17439;48.092;11.842;2023-09-07T12:39:34;6.00;;;2.65;;
30681;SDS011;17439;48.092;11.842;2023-09-07T12:42:01;10.43;;;3.35;;
30681;SDS011;17439;48.092;11.842;2023-09-07T12:44:28;5.32;;;3.03;;
30681;SDS011;17439;48.092;11.842;2023-09-07T12:46:54;4.40;;;2.97;;
30681;SDS011;17439;48.092;11.842;2023-09-07T12:49:21;6.22;;;3.20;;
30681;SDS011;17439;48.092;11.842;2023-09-07T12:51:48;4.47;;;3.27;;
30681;SDS011;17439;48.092;11.842;2023-09-07T12:54:15;3.28;;;2.45;;
30681;SDS011;17439;48.092;11.842;2023-09-07T12:56:42;4.85;;;3.08;;
30681;SDS011;17439;48.092;11.842;2023-09-07T12:59:09;4.13;;;2.50;;
30681;SDS011;17439;48.092;11.842;2023-09-07T13:01:35;4.55;;;3.15;;
30681;SDS011;17439;48.092;11.842;2023-09-07T13:04:03;4.50;;;3.35;;
30681;SDS011;17439;48.092;11.842;2023-09-07T13:06:29;4.60;;;2.90;;
30681;SDS011;17439;48.092;11.842;2023-09-07T13:08:56;3.00;;;2.47;;
30681;SDS011;17439;48.092;11.842;2023-09-07T13:11:23;4.78;;;3.33;;
30681;SDS011;17439;48.092;11.842;2023-09-07T13:13:50;3.50;;;2.80;;
30681;SDS011;17439;48.092;11.842;2023-09-07T13:16:17;4.15;;;2.42;;
30681;SDS011;17439;48.092;11.842;2023-09-07T13:18:43;4.43;;;2.90;;
30681;SDS011;17439;48.092;11.842;2023-09-07T13:21:10;5.10;;;3.15;;
30681;SDS011;17439;48.092;11.842;2023-09-07T13:23:37;3.78;;;2.78;;
30681;SDS011;17439;48.092;11.842;2023-09-07T13:26:04;4.70;;;2.72;;
30681;SDS011;17439;48.092;11.842;2023-09-07T13:28:30;8.32;;;3.08;;
30681;SDS011;17439;48.092;11.842;2023-09-07T13:31:00;4.00;;;2.65;;
30681;SDS011;17439;48.092;11.842;2023-09-07T13:33:27;6.30;;;3.53;;
30681;SDS011;17439;48.092;11.842;2023-09-07T13:35:54;4.63;;;3.17;;
30681;SDS011;17439;48.092;11.842;2023-09-07T13:38:21;4.03;;;2.95;;
30681;SDS011;17439;48.092;11.842;2023-09-07T13:40:48;9.05;;;3.28;;
30681;SDS011;17439;48.092;11.842;2023-09-07T13:43:14;4.85;;;3.30;;
30681;SDS011;17439;48.092;11.842;2023-09-07T13:45:41;5.45;;;3.08;;
30681;SDS011;17439;48.092;11.842;2023-09-07T13:48:08;8.27;;;3.30;;
30681;SDS011;17439;48.092;11.842;2023-09-07T13:50:35;8.50;;;3.13;;
30681;SDS011;17439;48.092;11.842;2023-09-07T13:53:02;4.40;;;2.90;;
30681;SDS011;17439;48.092;11.842;2023-09-07T13:55:29;3.17;;;2.30;;
30681;SDS011;17439;48.092;11.842;2023-09-07T13:57:56;3.65;;;3.20;;
30681;SDS011;17439;48.092;11.842;2023-09-07T14:00:23;3.10;;;2.50;;
30681;SDS011;17439;48.092;11.842;2023-09-07T14:02:49;4.45;;;2.95;;
30681;SDS011;17439;48.092;11.842;2023-09-07T14:05:16;8.33;;;2.90;;
30681;SDS011;17439;48.092;11.842;2023-09-07T14:07:43;3.88;;;2.83;;
30681;SDS011;17439;48.092;11.842;2023-09-07T14:10:10;4.20;;;2.92;;
30681;SDS011;17439;48.092;11.842;2023-09-07T14:12:37;5.05;;;2.92;;
30681;SDS011;17439;48.092;11.842;2023-09-07T14:15:03;5.57;;;2.85;;
30681;SDS011;17439;48.092;11.842;2023-09-07T14:17:30;4.53;;;2.93;;
30681;SDS011;17439;48.092;11.842;2023-09-07T14:19:57;4.82;;;2.90;;
30681;SDS011;17439;48.092;11.842;2023-09-07T14:22:24;3.95;;;2.67;;
30681;SDS011;17439;48.092;11.842;2023-09-07T14:24:51;5.07;;;2.85;;
30681;SDS011;17439;48.092;11.842;2023-09-07T14:27:18;4.72;;;3.10;;
30681;SDS011;17439;48.092;11.842;2023-09-07T14:29:46;3.65;;;2.58;;
30681;SDS011;17439;48.092;11.842;2023-09-07T14:32:13;3.83;;;2.58;;
30681;SDS011;17439;48.092;11.842;2023-09-07T14:34:39;3.30;;;2.45;;
30681;SDS011;17439;48.092;11.842;2023-09-07T14:37:06;4.30;;;3.05;;
30681;SDS011;17439;48.092;11.842;2023-09-07T14:39:33;2.93;;;2.60;;
30681;SDS011;17439;48.092;11.842;2023-09-07T14:42:00;5.80;;;2.70;;
30681;SDS011;17439;48.092;11.842;2023-09-07T14:44:27;3.80;;;2.53;;
30681;SDS011;17439;48.092;11.842;2023-09-07T14:46:54;3.92;;;2.42;;
30681;SDS011;17439;48.092;11.842;2023-09-07T14:49:21;4.20;;;2.73;;
30681;SDS011;17439;48.092;11.842;2023-09-07T14:51:47;3.95;;;2.53;;
30681;SDS011;17439;48.092;11.842;2023-09-07T14:54:15;3.65;;;2.38;;
30681;SDS011;17439;48.092;11.842;2023-09-07T14:56:42;3.75;;;2.30;;
30681;SDS011;17439;48.092;11.842;2023-09-07T14:59:08;12.98;;;2.63;;